createdAt,value
2022-11-17T00:00:42.815Z,52.13
2022-11-17T00:03:15.786Z,48.35
2022-11-17T00:05:44.425Z,52.65
2022-11-17T00:08:12.333Z,50.65
2022-11-17T00:10:39.857Z,51.92
2022-11-17T00:13:28.888Z,50.70
2022-11-17T00:15:56.415Z,55.38
2022-11-17T00:18:42.404Z,54.35
2022-11-17T00:21:23.506Z,66.03
2022-11-17T00:23:51.192Z,74.07
2022-11-17T00:26:23.933Z,63.33
2022-11-17T00:28:56.066Z,62.95
2022-11-17T00:31:43.941Z,72.70
2022-11-17T00:34:15.603Z,69.68
2022-11-17T00:36:46.598Z,66.85
2022-11-17T00:39:16.434Z,62.10
2022-11-17T00:41:44.377Z,59.08
2022-11-17T00:44:12.283Z,68.15
2022-11-17T00:46:40.785Z,63.90
2022-11-17T00:49:10.176Z,60.25
2022-11-17T00:51:38.076Z,60.10
2022-11-17T00:54:07.475Z,61.33
2022-11-17T00:56:35.000Z,61.90
2022-11-17T00:59:02.633Z,59.47
2022-11-17T01:01:30.475Z,57.95
2022-11-17T01:04:04.563Z,68.28
2022-11-17T01:06:35.862Z,87.30
2022-11-17T01:09:11.228Z,147.73
2022-11-17T01:11:38.984Z,99.97
2022-11-17T01:14:06.650Z,149.77
2022-11-17T01:16:34.124Z,91.30
2022-11-17T01:19:02.896Z,87.60
2022-11-17T01:21:31.500Z,77.07
2022-11-17T01:24:01.117Z,71.20
2022-11-17T01:26:32.026Z,56.55
2022-11-17T01:29:01.178Z,84.93
2022-11-17T01:31:31.060Z,119.90
2022-11-17T01:33:59.016Z,56.97
2022-11-17T01:36:56.577Z,59.92
2022-11-17T01:39:25.400Z,59.00
2022-11-17T01:41:53.618Z,55.50
2022-11-17T01:44:36.512Z,54.28
2022-11-17T01:47:08.135Z,55.65
2022-11-17T01:49:35.831Z,62.03
2022-11-17T01:52:07.437Z,62.85
2022-11-17T01:54:40.389Z,65.95
2022-11-17T01:57:13.446Z,67.07
2022-11-17T01:59:48.934Z,70.97
2022-11-17T02:02:16.866Z,74.95
2022-11-17T02:04:49.813Z,75.55
2022-11-17T02:07:23.176Z,75.70
2022-11-17T02:09:52.792Z,78.07
2022-11-17T02:12:23.581Z,64.88
2022-11-17T02:14:51.702Z,66.55
2022-11-17T02:17:21.605Z,64.05
2022-11-17T02:20:11.270Z,66.82
2022-11-17T02:23:10.138Z,67.30
2022-11-17T02:25:49.821Z,71.90
2022-11-17T02:28:17.356Z,70.88
2022-11-17T02:31:06.714Z,75.40
2022-11-17T02:33:34.469Z,71.30
2022-11-17T02:36:10.990Z,68.55
2022-11-17T02:39:10.064Z,62.25
2022-11-17T02:41:54.288Z,63.90
2022-11-17T02:44:39.979Z,56.20
2022-11-17T02:47:23.516Z,61.45
2022-11-17T02:49:58.974Z,64.20
2022-11-17T02:52:29.944Z,70.82
2022-11-17T02:55:02.791Z,58.53
2022-11-17T02:57:35.208Z,58.33
2022-11-17T03:00:05.408Z,71.60
2022-11-17T03:02:57.333Z,73.28
2022-11-17T03:05:48.856Z,62.67
2022-11-17T03:08:44.003Z,68.28
2022-11-17T03:14:04.541Z,65.80
2022-11-17T03:16:41.446Z,67.78
2022-11-17T03:19:19.749Z,63.47
2022-11-17T03:21:57.341Z,58.13
2022-11-17T03:24:32.733Z,58.42
2022-11-17T03:27:07.679Z,69.10
2022-11-17T03:29:39.000Z,109.00
2022-11-17T03:32:10.018Z,107.10
2022-11-17T03:34:44.232Z,112.70
2022-11-17T03:37:15.532Z,95.97
2022-11-17T03:39:51.394Z,79.03
2022-11-17T03:42:30.693Z,88.28
2022-11-17T03:45:03.355Z,79.88
2022-11-17T03:47:33.753Z,96.95
2022-11-17T03:50:09.444Z,80.93
2022-11-17T03:52:38.077Z,74.45
2022-11-17T03:55:06.557Z,90.15
2022-11-17T03:58:05.695Z,73.50
2022-11-17T04:00:36.705Z,129.05
2022-11-17T04:03:04.297Z,65.75
2022-11-17T04:05:31.905Z,68.25
2022-11-17T04:07:59.413Z,69.50
2022-11-17T04:10:27.001Z,73.07
2022-11-17T04:13:13.345Z,72.38
2022-11-17T04:15:56.304Z,66.50
2022-11-17T04:18:24.068Z,65.90
2022-11-17T04:20:54.000Z,78.85
2022-11-17T04:23:22.564Z,83.15
2022-11-17T04:26:11.259Z,81.90
2022-11-17T04:28:47.929Z,82.10
2022-11-17T04:31:17.005Z,79.53
2022-11-17T04:33:46.981Z,89.20
2022-11-17T04:36:17.470Z,94.90
2022-11-17T04:38:47.338Z,97.13
2022-11-17T04:41:34.668Z,89.00
2022-11-17T04:44:03.155Z,93.97
2022-11-17T04:46:32.277Z,89.07
2022-11-17T04:49:00.896Z,84.55
2022-11-17T04:51:29.770Z,81.35
2022-11-17T04:53:58.067Z,83.75
2022-11-17T04:56:26.938Z,79.88
2022-11-17T04:58:54.967Z,73.18
2022-11-17T05:01:23.659Z,84.40
2022-11-17T05:03:56.675Z,77.70
2022-11-17T05:06:38.008Z,78.18
2022-11-17T05:09:13.923Z,78.90
2022-11-17T05:12:01.346Z,75.35
2022-11-17T05:14:29.720Z,79.38
2022-11-17T05:17:10.547Z,78.20
2022-11-17T05:19:47.153Z,72.88
2022-11-17T05:22:35.896Z,80.63
2022-11-17T05:25:04.450Z,71.55
2022-11-17T05:27:33.954Z,70.18
2022-11-17T05:30:02.661Z,69.68
2022-11-17T05:32:31.419Z,66.97
2022-11-17T05:34:59.012Z,66.78
2022-11-17T05:37:26.636Z,67.97
2022-11-17T05:39:56.311Z,72.32
2022-11-17T05:42:23.947Z,70.38
2022-11-17T05:44:51.467Z,71.38
2022-11-17T05:47:18.999Z,70.65
2022-11-17T05:49:46.469Z,64.63
2022-11-17T05:52:14.051Z,64.78
2022-11-17T05:54:41.516Z,64.55
2022-11-17T05:57:14.348Z,64.70
2022-11-17T05:59:48.605Z,64.97
2022-11-17T06:02:38.724Z,69.25
2022-11-17T06:05:06.450Z,67.93
2022-11-17T06:07:36.805Z,66.85
2022-11-17T06:10:05.352Z,66.65
2022-11-17T06:12:32.840Z,69.50
2022-11-17T06:15:00.304Z,64.82
2022-11-17T06:17:40.722Z,66.30
2022-11-17T06:20:28.305Z,75.22
2022-11-17T06:23:00.532Z,65.53
2022-11-17T06:25:29.065Z,74.05
2022-11-17T06:27:58.268Z,67.68
2022-11-17T06:30:25.836Z,68.88
2022-11-17T06:32:53.625Z,67.57
2022-11-17T06:35:21.182Z,69.00
2022-11-17T06:37:48.760Z,64.32
2022-11-17T06:40:16.558Z,58.58
2022-11-17T06:43:02.299Z,59.42
2022-11-17T06:45:34.285Z,57.30
2022-11-17T06:48:02.326Z,58.70
2022-11-17T06:50:29.873Z,57.10
2022-11-17T06:53:08.536Z,57.05
2022-11-17T06:55:36.948Z,47.83
2022-11-17T06:58:07.662Z,41.75
2022-11-17T07:00:37.109Z,40.28
2022-11-17T07:03:09.760Z,41.90
2022-11-17T07:05:40.236Z,38.33
2022-11-17T07:08:09.594Z,36.80
2022-11-17T07:10:38.056Z,39.30
2022-11-17T07:13:05.636Z,39.53
2022-11-17T07:15:33.233Z,44.17
2022-11-17T07:18:00.878Z,35.58
2022-11-17T07:20:28.543Z,35.47
2022-11-17T07:23:00.210Z,34.05
2022-11-17T07:25:27.801Z,33.83
2022-11-17T07:28:00.005Z,34.40
2022-11-17T07:30:27.815Z,34.17
2022-11-17T07:32:55.453Z,39.47
2022-11-17T07:35:22.941Z,36.15
2022-11-17T07:37:50.597Z,45.90
2022-11-17T07:40:18.311Z,36.70
2022-11-17T07:42:49.984Z,40.13
2022-11-17T07:45:18.133Z,42.67
2022-11-17T07:47:45.667Z,38.20
2022-11-17T07:50:15.701Z,44.08
2022-11-17T07:52:43.212Z,43.70
2022-11-17T07:55:10.706Z,45.30
2022-11-17T07:57:38.209Z,41.45
2022-11-17T08:00:06.306Z,37.72
2022-11-17T08:02:40.528Z,37.58
2022-11-17T08:05:08.496Z,35.75
2022-11-17T08:07:36.057Z,33.13
2022-11-17T08:10:04.430Z,30.33
2022-11-17T08:12:31.987Z,30.33
2022-11-17T08:14:59.490Z,29.83
2022-11-17T08:17:27.612Z,31.95
2022-11-17T08:19:56.329Z,33.53
2022-11-17T08:22:24.168Z,31.85
2022-11-17T08:24:51.694Z,35.25
2022-11-17T08:27:19.186Z,35.10
2022-11-17T08:29:46.713Z,30.10
2022-11-17T08:32:14.190Z,31.00
2022-11-17T08:34:41.670Z,33.33
2022-11-17T08:37:09.468Z,33.17
2022-11-17T08:39:37.196Z,31.83
2022-11-17T08:42:04.671Z,28.35
2022-11-17T08:44:32.193Z,33.42
2022-11-17T08:46:59.758Z,33.95
2022-11-17T08:49:27.308Z,28.20
2022-11-17T08:51:54.837Z,28.85
2022-11-17T08:54:22.403Z,28.98
2022-11-17T08:56:50.073Z,26.23
2022-11-17T08:59:17.648Z,25.88
2022-11-17T09:01:45.401Z,28.42
2022-11-17T09:04:13.079Z,24.55
2022-11-17T09:06:40.606Z,28.38
2022-11-17T09:09:08.300Z,29.10
2022-11-17T09:11:35.866Z,31.58
2022-11-17T09:14:03.723Z,33.25
2022-11-17T09:16:31.177Z,36.58
2022-11-17T09:18:59.003Z,37.60
2022-11-17T09:21:27.686Z,36.25
2022-11-17T09:23:55.243Z,41.15
2022-11-17T09:26:22.917Z,37.60
2022-11-17T09:28:50.558Z,37.92
2022-11-17T09:31:20.879Z,40.25
2022-11-17T09:33:48.486Z,35.30
2022-11-17T09:36:16.971Z,38.00
2022-11-17T09:38:46.782Z,38.47
2022-11-17T09:41:40.722Z,34.53
2022-11-17T09:44:12.486Z,33.30
2022-11-17T09:46:46.145Z,31.25
2022-11-17T09:49:53.647Z,28.40
2022-11-17T09:52:36.192Z,30.17
2022-11-17T09:55:09.516Z,28.13
2022-11-17T09:57:48.687Z,28.77
2022-11-17T10:00:21.214Z,29.63
2022-11-17T10:02:50.710Z,29.00
2022-11-17T10:05:28.442Z,28.42
2022-11-17T10:08:03.513Z,28.42
2022-11-17T10:10:36.186Z,27.88
2022-11-17T10:13:06.187Z,28.27
2022-11-17T10:15:47.287Z,23.50
2022-11-17T10:18:16.507Z,23.58
2022-11-17T10:20:45.220Z,19.65
2022-11-17T10:23:19.005Z,22.40
2022-11-17T10:25:48.517Z,23.50
2022-11-17T10:28:32.410Z,19.25
2022-11-17T10:31:17.845Z,22.20
2022-11-17T10:33:48.774Z,19.85
2022-11-17T10:36:23.701Z,20.58
2022-11-17T10:38:59.229Z,22.45
2022-11-17T10:41:41.285Z,20.67
2022-11-17T10:44:29.781Z,21.65
2022-11-17T10:47:04.143Z,21.67
2022-11-17T10:52:16.712Z,24.10
2022-11-17T10:54:44.804Z,22.27
2022-11-17T10:57:20.090Z,22.13
2022-11-17T10:59:57.666Z,19.35
2022-11-17T11:02:36.455Z,19.92
2022-11-17T11:05:12.946Z,20.85
2022-11-17T11:07:41.162Z,19.80
2022-11-17T11:10:18.822Z,19.30
2022-11-17T11:12:52.684Z,18.52
2022-11-17T11:15:24.609Z,17.83
2022-11-17T11:17:52.507Z,17.00
2022-11-17T11:20:39.554Z,18.05
2022-11-17T11:23:20.875Z,17.92
2022-11-17T11:26:02.135Z,16.58
2022-11-17T11:28:46.359Z,18.58
2022-11-17T11:31:41.987Z,18.13
2022-11-17T11:34:36.709Z,18.83
2022-11-17T11:37:12.426Z,19.73
2022-11-17T11:39:59.208Z,18.02
2022-11-17T11:42:46.479Z,20.85
2022-11-17T11:45:36.667Z,17.90
2022-11-17T11:48:09.119Z,16.92
2022-11-17T11:50:47.418Z,20.23
2022-11-17T11:53:20.622Z,17.27
2022-11-17T11:55:50.251Z,18.20
2022-11-17T11:58:24.728Z,19.00
2022-11-17T12:03:58.216Z,19.63
2022-11-17T12:06:43.922Z,17.65
2022-11-17T12:09:32.480Z,17.25
2022-11-17T12:12:06.514Z,17.38
2022-11-17T12:14:36.794Z,16.42
2022-11-17T12:17:24.217Z,16.38
2022-11-17T12:20:09.294Z,16.38
2022-11-17T12:22:56.584Z,15.82
2022-11-17T12:25:30.392Z,15.98
2022-11-17T12:27:58.100Z,18.10
2022-11-17T12:30:34.769Z,16.95
2022-11-17T12:33:06.843Z,16.17
2022-11-17T12:35:36.255Z,17.45
2022-11-17T12:38:15.618Z,16.40
2022-11-17T12:40:52.603Z,14.45
2022-11-17T12:43:27.790Z,15.73
2022-11-17T12:45:58.276Z,15.52
2022-11-17T12:48:35.124Z,14.05
2022-11-17T12:51:18.017Z,14.48
2022-11-17T12:54:16.128Z,23.42
2022-11-17T12:57:26.453Z,58.05
2022-11-17T13:00:22.165Z,17.10
2022-11-17T13:02:56.130Z,14.63
2022-11-17T13:08:10.852Z,16.23
2022-11-17T13:10:38.422Z,17.20
2022-11-17T13:13:24.052Z,16.58
2022-11-17T13:15:54.655Z,15.75
2022-11-17T13:18:32.204Z,15.30
2022-11-17T13:21:00.974Z,14.05
2022-11-17T13:23:31.587Z,14.55
2022-11-17T13:26:10.633Z,14.25
2022-11-17T13:28:38.297Z,15.38
2022-11-17T13:31:06.591Z,15.18
2022-11-17T13:33:40.019Z,15.93
2022-11-17T13:36:19.841Z,14.45
2022-11-17T13:38:51.963Z,16.02
2022-11-17T13:41:21.856Z,17.67
2022-11-17T13:43:51.259Z,18.80
2022-11-17T13:46:19.107Z,16.75
2022-11-17T13:48:49.154Z,17.73
2022-11-17T13:51:19.734Z,17.23
2022-11-17T13:53:52.599Z,19.90
2022-11-17T13:56:46.179Z,17.80
2022-11-17T13:59:26.524Z,21.70
2022-11-17T14:02:29.938Z,18.10
2022-11-17T14:05:16.792Z,15.38
2022-11-17T14:07:45.386Z,17.25
2022-11-17T14:10:13.367Z,17.67
2022-11-17T14:12:44.747Z,18.27
2022-11-17T14:15:20.967Z,21.88
2022-11-17T14:17:50.893Z,21.95
2022-11-17T14:20:24.415Z,18.67
2022-11-17T14:23:08.829Z,19.73
2022-11-17T14:25:53.190Z,21.75
2022-11-17T14:28:25.497Z,28.05
2022-11-17T14:30:54.760Z,22.27
2022-11-17T14:33:23.074Z,19.77
2022-11-17T14:35:57.063Z,17.88
2022-11-17T14:38:25.339Z,15.98
2022-11-17T14:40:53.771Z,18.83
2022-11-17T14:43:22.530Z,19.45
2022-11-17T14:45:50.913Z,18.25
2022-11-17T14:48:19.694Z,18.88
2022-11-17T14:50:47.824Z,93.20
2022-11-17T14:53:15.599Z,476.60
2022-11-17T14:55:43.064Z,384.35
2022-11-17T14:58:10.649Z,409.10
2022-11-17T15:00:38.160Z,232.65
2022-11-17T15:03:05.689Z,44.25
2022-11-17T15:05:33.684Z,34.25
2022-11-17T15:08:01.243Z,27.10
2022-11-17T15:10:28.752Z,29.27
2022-11-17T15:12:56.348Z,33.42
2022-11-17T15:15:23.823Z,36.53
2022-11-17T15:17:51.377Z,35.30
2022-11-17T15:20:19.041Z,31.83
2022-11-17T15:22:46.506Z,32.85
2022-11-17T15:25:14.095Z,43.25
2022-11-17T15:27:41.560Z,34.80
2022-11-17T15:30:09.436Z,42.05
2022-11-17T15:32:37.246Z,39.47
2022-11-17T15:35:05.322Z,38.20
2022-11-17T15:37:32.838Z,37.03
2022-11-17T15:40:00.646Z,38.58
2022-11-17T15:42:28.158Z,29.55
2022-11-17T15:44:55.707Z,30.33
2022-11-17T15:47:23.685Z,58.25
2022-11-17T15:49:58.436Z,88.10
2022-11-17T15:52:48.787Z,65.88
2022-11-17T15:55:13.721Z,70.47
2022-11-17T15:57:41.299Z,57.33
2022-11-17T16:00:09.940Z,32.78
2022-11-17T16:02:37.446Z,25.20
2022-11-17T16:05:05.495Z,25.63
2022-11-17T16:07:33.143Z,30.05
2022-11-17T16:10:00.857Z,33.25
2022-11-17T16:12:28.361Z,21.50
2022-11-17T16:14:55.888Z,26.70
2022-11-17T16:17:23.409Z,22.55
2022-11-17T16:19:51.684Z,25.92
2022-11-17T16:22:19.273Z,21.52
2022-11-17T16:24:46.738Z,21.13
2022-11-17T16:27:14.333Z,37.33
2022-11-17T16:29:41.867Z,21.10
2022-11-17T16:32:09.499Z,18.30
2022-11-17T16:34:38.527Z,19.25
2022-11-17T16:37:06.011Z,24.10
2022-11-17T16:39:33.784Z,21.52
2022-11-17T16:42:01.648Z,22.92
2022-11-17T16:44:29.179Z,26.38
2022-11-17T16:46:56.989Z,26.60
2022-11-17T16:49:24.770Z,22.85
2022-11-17T16:51:56.729Z,29.05
2022-11-17T16:54:24.162Z,19.45
2022-11-17T16:56:51.740Z,21.25
2022-11-17T16:59:19.761Z,21.25
2022-11-17T17:01:47.722Z,20.58
2022-11-17T17:04:23.511Z,22.13
2022-11-17T17:06:51.528Z,22.67
2022-11-17T17:09:24.749Z,21.40
2022-11-17T17:11:55.306Z,19.17
2022-11-17T17:14:22.946Z,22.02
2022-11-17T17:16:51.168Z,26.80
2022-11-17T17:19:19.155Z,309.65
2022-11-17T17:21:46.819Z,50.05
2022-11-17T17:24:14.652Z,41.40
2022-11-17T17:26:42.542Z,34.03
2022-11-17T17:29:10.632Z,35.08
2022-11-17T17:31:40.486Z,36.60
2022-11-17T17:34:11.525Z,89.40
2022-11-17T17:36:40.017Z,121.75
2022-11-17T17:39:08.109Z,63.15
2022-11-17T17:41:40.981Z,45.17
2022-11-17T17:44:13.290Z,45.72
2022-11-17T17:46:42.913Z,43.93
2022-11-17T17:49:11.898Z,40.45
2022-11-17T17:51:44.054Z,38.08
2022-11-17T17:54:19.876Z,42.47
2022-11-17T17:56:48.252Z,44.60
2022-11-17T17:59:17.080Z,44.13
2022-11-17T18:01:46.329Z,41.85
2022-11-17T18:04:16.223Z,146.90
2022-11-17T18:06:48.826Z,167.18
2022-11-17T18:09:19.390Z,52.83
2022-11-17T18:11:50.344Z,113.68
2022-11-17T18:14:29.094Z,69.53
2022-11-17T18:16:56.882Z,309.63
2022-11-17T18:19:31.371Z,74.95
2022-11-17T18:22:01.256Z,289.40
2022-11-17T18:24:29.029Z,125.35
2022-11-17T18:26:56.843Z,89.85
2022-11-17T18:29:24.970Z,68.28
2022-11-17T18:31:52.506Z,57.83
2022-11-17T18:34:22.927Z,50.60
2022-11-17T18:36:52.362Z,51.42
2022-11-17T18:39:21.396Z,49.15
2022-11-17T18:41:52.267Z,45.10
2022-11-17T18:44:20.070Z,48.40
2022-11-17T18:46:48.470Z,45.95
2022-11-17T18:49:16.804Z,43.58
2022-11-17T18:51:44.848Z,45.13
2022-11-17T18:54:13.095Z,43.85
2022-11-17T18:56:41.045Z,47.15
2022-11-17T18:59:11.934Z,47.38
2022-11-17T19:01:41.760Z,47.00
2022-11-17T19:04:11.725Z,47.08
2022-11-17T19:06:39.609Z,48.35
2022-11-17T19:09:08.258Z,50.58
2022-11-17T19:11:36.016Z,50.45
2022-11-17T19:14:07.007Z,44.03
2022-11-17T19:16:41.030Z,44.95
2022-11-17T19:19:13.463Z,160.35
2022-11-17T19:21:42.203Z,61.45
2022-11-17T19:24:09.908Z,68.28
2022-11-17T19:26:37.728Z,70.80
2022-11-17T19:29:15.668Z,217.75
2022-11-17T19:31:47.625Z,137.90
2022-11-17T19:34:16.089Z,67.32
2022-11-17T19:36:45.282Z,60.50
2022-11-17T19:39:14.165Z,61.83
2022-11-17T19:41:43.708Z,52.83
2022-11-17T19:44:11.488Z,53.35
2022-11-17T19:46:39.405Z,54.17
2022-11-17T19:49:08.084Z,204.18
2022-11-17T19:51:37.244Z,132.10
2022-11-17T19:54:07.863Z,56.08
2022-11-17T19:56:36.220Z,57.83
2022-11-17T19:59:05.078Z,52.50
2022-11-17T20:01:33.886Z,55.10
2022-11-17T20:04:01.744Z,55.80
2022-11-17T20:06:35.361Z,54.17
2022-11-17T20:09:08.747Z,55.10
2022-11-17T20:11:36.995Z,61.40
2022-11-17T20:14:07.315Z,153.95
2022-11-17T20:16:36.787Z,81.57
2022-11-17T20:19:05.016Z,74.35
2022-11-17T20:21:33.615Z,73.45
2022-11-17T20:24:02.142Z,69.85
2022-11-17T20:26:32.050Z,69.72
2022-11-17T20:29:05.327Z,73.03
2022-11-17T20:31:35.560Z,77.75
2022-11-17T20:34:05.484Z,59.13
2022-11-17T20:36:34.417Z,57.28
2022-11-17T20:39:05.967Z,49.35
2022-11-17T20:41:33.847Z,58.03
2022-11-17T20:44:03.188Z,57.80
2022-11-17T20:46:31.217Z,65.20
2022-11-17T20:48:59.038Z,59.17
2022-11-17T20:51:27.066Z,83.32
2022-11-17T20:53:55.613Z,65.85
2022-11-17T20:56:23.335Z,62.65
2022-11-17T20:58:50.927Z,68.80
2022-11-17T21:01:21.281Z,58.45
2022-11-17T21:03:49.654Z,61.17
2022-11-17T21:06:18.195Z,60.08
2022-11-17T21:08:46.167Z,59.10
2022-11-17T21:11:36.693Z,79.03
2022-11-17T21:14:07.488Z,131.77
2022-11-17T21:16:37.300Z,79.65
2022-11-17T21:19:04.996Z,76.32
2022-11-17T21:21:32.749Z,83.65
2022-11-17T21:24:00.672Z,82.15
2022-11-17T21:26:28.507Z,76.30
2022-11-17T21:28:59.372Z,70.43
2022-11-17T21:31:31.985Z,59.03
2022-11-17T21:34:02.249Z,54.80
2022-11-17T21:36:31.489Z,48.97
2022-11-17T21:38:59.883Z,46.45
2022-11-17T21:41:35.363Z,53.47
2022-11-17T21:44:03.935Z,56.78
2022-11-17T21:46:33.569Z,60.75
2022-11-17T21:49:01.627Z,64.22
2022-11-17T21:51:34.593Z,70.32
2022-11-17T21:54:04.480Z,79.53
2022-11-17T21:56:32.681Z,68.63
2022-11-17T21:59:06.021Z,71.90
2022-11-17T22:01:35.351Z,62.83
2022-11-17T22:04:03.007Z,65.38
2022-11-17T22:06:30.789Z,62.45
2022-11-17T22:08:59.655Z,64.95
2022-11-17T22:11:36.147Z,65.75
2022-11-17T22:14:06.601Z,69.15
2022-11-17T22:16:36.191Z,58.58
2022-11-17T22:19:04.529Z,56.72
2022-11-17T22:21:32.166Z,49.70
2022-11-17T22:23:59.884Z,44.50
2022-11-17T22:26:27.431Z,44.58
2022-11-17T22:28:56.171Z,54.38
2022-11-17T22:31:24.270Z,54.33
2022-11-17T22:33:52.011Z,51.10
2022-11-17T22:36:20.021Z,56.28
2022-11-17T22:38:51.335Z,60.05
2022-11-17T22:41:20.872Z,55.15
2022-11-17T22:43:56.267Z,52.45
2022-11-17T22:46:28.507Z,55.67
2022-11-17T22:48:56.843Z,49.55
2022-11-17T22:51:43.734Z,45.58
2022-11-17T22:54:11.452Z,57.03
2022-11-17T22:56:39.338Z,50.70
2022-11-17T22:59:07.740Z,41.92
2022-11-17T23:01:35.303Z,57.20
2022-11-17T23:04:02.966Z,86.72
2022-11-17T23:06:30.489Z,66.72
2022-11-17T23:08:58.359Z,53.35
2022-11-17T23:11:41.836Z,51.03
2022-11-17T23:14:12.386Z,48.33
2022-11-17T23:16:39.963Z,48.50
2022-11-17T23:19:11.188Z,45.75
2022-11-17T23:21:38.670Z,46.20
2022-11-17T23:24:06.687Z,51.85
2022-11-17T23:26:34.126Z,62.42
2022-11-17T23:29:01.714Z,54.17
2022-11-17T23:31:29.497Z,61.53
2022-11-17T23:33:57.091Z,75.78
2022-11-17T23:36:24.979Z,61.65
2022-11-17T23:38:55.294Z,47.90
2022-11-17T23:41:23.057Z,46.05
2022-11-17T23:43:52.575Z,49.28
2022-11-17T23:46:23.043Z,45.15
2022-11-17T23:48:50.633Z,47.42
2022-11-17T23:51:24.328Z,53.58
2022-11-17T23:53:52.879Z,54.55
2022-11-17T23:56:20.859Z,54.35
2022-11-17T23:58:48.783Z,50.53
